Time;durP1;ratioP1;P1;durP2;ratioP2;P2;SDS_P1;SDS_P2;PMS_P1;PMS_P2;Temp;Humidity;BMP_temperature;BMP_pressure;BME280_temperature;BME280_humidity;BME280_pressure;Samples;Min_cycle;Max_cycle;Signal;HPM_P1;HPM_P2
2021/03/10 00:02:20;;;;;;;24.73;14.30;;;4.00;99.90;;;;;;5113615;28;20508;-83
2021/03/10 00:04:47;;;;;;;25.63;15.60;;;3.90;99.90;;;;;;5113627;28;20447;-83
2021/03/10 00:07:13;;;;;;;28.73;14.63;;;3.90;99.90;;;;;;5113551;28;20471;-84
2021/03/10 00:09:39;;;;;;;28.57;13.43;;;3.80;99.90;;;;;;5113568;28;20447;-84
2021/03/10 00:12:07;;;;;;;26.13;15.00;;;3.70;99.90;;;;;;5113742;28;20475;-84
2021/03/10 00:14:33;;;;;;;25.97;15.40;;;3.60;99.90;;;;;;5113481;28;20448;-84
2021/03/10 00:17:00;;;;;;;22.90;13.00;;;3.50;99.90;;;;;;5114010;28;20467;-84
2021/03/10 00:19:26;;;;;;;25.10;14.33;;;3.50;99.90;;;;;;5113318;28;20454;-84
2021/03/10 00:21:52;;;;;;;20.70;13.07;;;3.40;99.90;;;;;;5113581;28;20828;-84
2021/03/10 00:24:19;;;;;;;26.57;14.70;;;3.40;99.90;;;;;;5113537;28;20500;-84
2021/03/10 00:26:45;;;;;;;25.70;13.83;;;3.30;99.90;;;;;;5113552;28;20459;-84
2021/03/10 00:29:11;;;;;;;25.17;14.20;;;3.20;99.90;;;;;;5113070;28;20482;-84
2021/03/10 00:31:38;;;;;;;32.93;16.07;;;3.30;99.90;;;;;;5113470;28;20466;-84
2021/03/10 00:34:05;;;;;;;27.10;14.63;;;3.20;99.90;;;;;;5113541;28;20507;-84
2021/03/10 00:36:31;;;;;;;29.27;15.73;;;3.20;99.90;;;;;;5113301;28;20467;-84
2021/03/10 00:38:57;;;;;;;26.37;15.37;;;3.20;99.90;;;;;;5113414;28;20479;-84
2021/03/10 00:41:23;;;;;;;27.17;14.87;;;3.30;99.90;;;;;;5113047;28;20497;-84
2021/03/10 00:43:50;;;;;;;30.87;15.37;;;3.20;99.90;;;;;;5113356;28;20454;-84
2021/03/10 00:46:16;;;;;;;31.37;16.13;;;3.20;99.90;;;;;;5113207;28;20474;-84
2021/03/10 00:48:42;;;;;;;28.10;14.17;;;3.20;99.90;;;;;;5113381;28;20446;-84
2021/03/10 00:51:09;;;;;;;28.57;16.00;;;3.20;99.90;;;;;;5113240;28;20810;-84
2021/03/10 00:53:36;;;;;;;32.30;16.57;;;3.20;99.90;;;;;;5115257;28;20496;-84
2021/03/10 00:56:02;;;;;;;27.90;16.00;;;3.20;99.90;;;;;;5116858;28;20469;-84
2021/03/10 00:58:28;;;;;;;28.20;15.10;;;3.20;99.90;;;;;;5116671;28;20846;-84
2021/03/10 01:00:54;;;;;;;30.93;15.70;;;3.20;99.90;;;;;;5116645;28;20856;-84
2021/03/10 01:03:21;;;;;;;31.30;16.40;;;3.20;99.90;;;;;;5116776;28;20451;-84
2021/03/10 01:05:47;;;;;;;29.60;15.87;;;3.20;99.90;;;;;;5116645;27;20482;-84
2021/03/10 01:08:15;;;;;;;29.50;15.00;;;3.20;99.90;;;;;;5116767;28;20451;-84
2021/03/10 01:10:41;;;;;;;29.90;15.77;;;3.30;99.90;;;;;;5116565;28;20492;-83
2021/03/10 01:13:08;;;;;;;30.27;15.70;;;3.30;99.90;;;;;;5116669;28;20431;-84
2021/03/10 01:15:34;;;;;;;32.63;17.80;;;3.40;99.90;;;;;;5116123;28;20978;-84
2021/03/10 01:18:00;;;;;;;29.77;16.07;;;3.40;99.90;;;;;;5116469;28;20470;-84
2021/03/10 01:20:27;;;;;;;29.27;15.77;;;3.40;99.90;;;;;;5116273;28;20810;-84
2021/03/10 01:22:53;;;;;;;29.10;15.27;;;3.40;99.90;;;;;;5116306;28;20485;-84
2021/03/10 01:25:21;;;;;;;27.77;15.13;;;3.40;99.90;;;;;;5116292;28;20461;-84
2021/03/10 01:27:47;;;;;;;30.27;15.20;;;3.30;99.90;;;;;;5115873;28;20474;-84
2021/03/10 01:30:15;;;;;;;31.53;15.40;;;3.30;99.90;;;;;;5116028;28;20408;-85
2021/03/10 01:32:42;;;;;;;31.43;16.57;;;3.30;99.90;;;;;;5116422;28;20965;-84
2021/03/10 01:35:10;;;;;;;29.20;16.10;;;3.20;99.90;;;;;;5116120;28;20473;-84
2021/03/10 01:37:36;;;;;;;34.23;15.47;;;3.20;99.90;;;;;;5115974;28;20447;-84
2021/03/10 01:40:06;;;;;;;28.13;15.57;;;3.20;99.90;;;;;;5116053;28;20462;-85
2021/03/10 01:42:33;;;;;;;30.00;16.67;;;3.20;99.90;;;;;;5116014;28;21009;-84
2021/03/10 01:44:59;;;;;;;33.27;15.93;;;3.20;99.90;;;;;;5115954;28;20443;-84
2021/03/10 01:47:26;;;;;;;29.63;16.30;;;3.10;99.90;;;;;;5115896;28;20447;-85
2021/03/10 01:49:52;;;;;;;29.97;17.30;;;3.10;99.90;;;;;;5115891;28;20488;-85
2021/03/10 01:52:18;;;;;;;32.83;16.60;;;3.00;99.90;;;;;;5116620;28;20454;-85
2021/03/10 01:54:45;;;;;;;31.17;16.67;;;2.90;99.90;;;;;;5115551;28;20451;-85
2021/03/10 01:57:11;;;;;;;37.57;17.97;;;2.90;99.90;;;;;;5115382;28;20458;-84
2021/03/10 01:59:38;;;;;;;35.57;17.77;;;2.80;99.90;;;;;;5115513;28;20428;-85
2021/03/10 02:02:05;;;;;;;37.90;17.80;;;2.80;99.90;;;;;;5115522;28;20536;-85
2021/03/10 02:04:31;;;;;;;34.70;18.13;;;2.90;99.90;;;;;;5115456;28;20443;-85
2021/03/10 02:07:06;;;;;;;33.90;18.50;;;2.90;99.90;;;;;;5115423;28;20465;-84
2021/03/10 02:09:41;;;;;;;38.17;18.00;;;3.00;99.90;;;;;;5115637;28;20408;-85
2021/03/10 02:12:15;;;;;;;35.10;19.10;;;3.10;99.90;;;;;;5115468;28;20431;-84
2021/03/10 02:14:50;;;;;;;33.83;18.73;;;3.20;99.90;;;;;;5115432;27;20406;-84
2021/03/10 02:17:19;;;;;;;32.03;16.80;;;3.20;99.90;;;;;;5115008;28;20447;-84
2021/03/10 02:20:05;;;;;;;38.00;18.50;;;3.20;99.90;;;;;;5115182;28;20819;-84
2021/03/10 02:22:51;;;;;;;31.83;17.20;;;3.30;99.90;;;;;;5115282;28;20817;-85
2021/03/10 02:25:27;;;;;;;34.53;17.07;;;3.30;99.90;;;;;;5114943;28;20478;-84
2021/03/10 02:27:57;;;;;;;34.17;17.20;;;3.30;99.90;;;;;;5114815;28;20462;-84
2021/03/10 02:30:26;;;;;;;30.83;16.00;;;3.30;99.90;;;;;;5115216;28;20408;-84
2021/03/10 02:32:55;;;;;;;32.63;17.97;;;3.40;99.90;;;;;;5114960;28;20431;-85
2021/03/10 02:35:23;;;;;;;38.53;18.07;;;3.40;99.90;;;;;;5115304;28;20478;-84
2021/03/10 02:37:52;;;;;;;36.30;18.17;;;3.40;99.90;;;;;;5114934;28;20781;-85
2021/03/10 02:40:22;;;;;;;35.67;17.00;;;3.40;99.90;;;;;;5114996;28;20424;-85
2021/03/10 02:42:49;;;;;;;32.43;18.63;;;3.40;99.90;;;;;;5114492;28;21004;-85
2021/03/10 02:45:17;;;;;;;31.90;16.73;;;3.30;99.90;;;;;;5114445;28;20463;-85
2021/03/10 02:47:44;;;;;;;31.30;16.97;;;3.30;99.90;;;;;;5114659;28;20454;-84
2021/03/10 02:50:12;;;;;;;35.57;19.00;;;3.20;99.90;;;;;;5114710;28;20447;-84
2021/03/10 02:52:40;;;;;;;34.40;16.87;;;3.20;99.90;;;;;;5114698;28;20488;-84
2021/03/10 02:55:07;;;;;;;38.47;17.90;;;3.20;99.90;;;;;;5114441;28;20443;-84
2021/03/10 02:57:34;;;;;;;38.10;17.93;;;3.20;99.90;;;;;;5114626;28;20522;-84
2021/03/10 03:00:03;;;;;;;34.23;16.10;;;3.20;99.90;;;;;;5114392;28;20805;-84
2021/03/10 03:02:31;;;;;;;32.93;18.60;;;3.20;99.90;;;;;;5114424;28;20475;-84
2021/03/10 03:04:57;;;;;;;36.90;18.70;;;3.20;99.90;;;;;;5114417;28;20446;-84
2021/03/10 03:07:23;;;;;;;45.23;18.43;;;3.30;99.90;;;;;;5114357;28;20451;-84
2021/03/10 03:09:49;;;;;;;31.57;16.20;;;3.30;99.90;;;;;;5114434;28;20525;-85
2021/03/10 03:12:16;;;;;;;37.07;17.93;;;3.30;99.90;;;;;;5114354;28;20453;-84
2021/03/10 03:14:43;;;;;;;33.90;17.10;;;3.30;99.90;;;;;;5114257;28;20446;-84
2021/03/10 03:17:10;;;;;;;38.67;16.97;;;3.40;99.90;;;;;;5113653;28;20471;-84
2021/03/10 03:19:37;;;;;;;36.50;18.07;;;3.30;99.90;;;;;;5114281;28;20454;-84
2021/03/10 03:22:04;;;;;;;36.30;17.67;;;3.40;99.90;;;;;;5113854;28;20478;-84
2021/03/10 03:24:31;;;;;;;36.43;17.07;;;3.40;99.90;;;;;;5114158;28;20450;-85
2021/03/10 03:26:58;;;;;;;32.10;17.70;;;3.50;99.90;;;;;;5113877;28;20499;-85
2021/03/10 03:29:27;;;;;;;37.63;18.10;;;3.50;99.90;;;;;;5113709;28;20478;-83
2021/03/10 03:31:54;;;;;;;34.07;17.63;;;3.40;99.90;;;;;;5113999;28;20439;-83
2021/03/10 03:34:21;;;;;;;38.10;18.10;;;3.40;99.90;;;;;;5113924;28;20447;-83
2021/03/10 03:36:49;;;;;;;30.73;17.13;;;3.40;99.90;;;;;;5113530;28;20835;-83
2021/03/10 03:39:16;;;;;;;38.30;19.20;;;3.40;99.90;;;;;;5113874;28;20443;-83
2021/03/10 03:41:44;;;;;;;33.17;18.70;;;3.30;99.90;;;;;;5114207;28;20875;-83
2021/03/10 03:44:10;;;;;;;27.73;15.53;;;3.20;99.90;;;;;;5113791;28;20458;-83
2021/03/10 03:46:37;;;;;;;42.97;19.47;;;3.20;99.90;;;;;;5113693;28;20467;-83
2021/03/10 03:49:04;;;;;;;35.60;18.07;;;3.20;99.90;;;;;;5113485;28;20451;-83
2021/03/10 03:51:32;;;;;;;34.33;17.83;;;3.10;99.90;;;;;;5113481;28;20435;-83
2021/03/10 03:54:00;;;;;;;34.93;17.40;;;3.10;99.90;;;;;;5113513;28;20961;-83
2021/03/10 03:56:27;;;;;;;38.53;18.50;;;3.10;99.90;;;;;;5113572;28;20479;-83
2021/03/10 03:58:53;;;;;;;38.30;17.50;;;3.10;99.90;;;;;;5113734;28;20439;-83
2021/03/10 04:01:20;;;;;;;33.47;17.90;;;3.10;99.90;;;;;;5113352;28;20856;-82
2021/03/10 04:03:46;;;;;;;31.63;16.73;;;3.00;99.90;;;;;;5113663;28;20447;-83
2021/03/10 04:06:13;;;;;;;36.10;18.10;;;3.00;99.90;;;;;;5113598;28;20463;-83
2021/03/10 04:08:41;;;;;;;31.83;17.53;;;3.00;99.90;;;;;;5113611;28;20447;-83
2021/03/10 04:11:09;;;;;;;36.03;19.47;;;3.00;99.90;;;;;;5113595;28;20451;-83
2021/03/10 04:13:35;;;;;;;34.90;17.40;;;3.10;99.90;;;;;;5113555;28;20446;-83
2021/03/10 04:16:02;;;;;;;33.77;17.50;;;3.00;99.90;;;;;;5113481;28;20463;-82
2021/03/10 04:18:28;;;;;;;36.87;16.67;;;3.00;99.90;;;;;;5113255;28;20459;-82
2021/03/10 04:20:54;;;;;;;32.87;16.83;;;2.90;99.90;;;;;;5113528;28;20435;-83
2021/03/10 04:23:20;;;;;;;42.87;18.70;;;2.90;99.90;;;;;;5113096;28;20997;-83
2021/03/10 04:25:47;;;;;;;40.10;18.03;;;2.90;99.90;;;;;;5113450;28;20459;-83
2021/03/10 04:28:14;;;;;;;38.13;18.80;;;2.80;99.90;;;;;;5114492;28;20569;-83
2021/03/10 04:30:40;;;;;;;38.20;18.23;;;2.70;99.90;;;;;;5117379;28;20454;-83
2021/03/10 04:33:06;;;;;;;38.23;19.10;;;2.70;99.90;;;;;;5117438;28;20445;-85
2021/03/10 04:35:33;;;;;;;32.73;17.17;;;2.70;99.90;;;;;;5117400;28;20467;-85
2021/03/10 04:37:59;;;;;;;42.77;19.23;;;2.70;99.90;;;;;;5117253;28;20425;-85
2021/03/10 04:40:26;;;;;;;35.60;17.60;;;2.70;99.90;;;;;;5117307;28;20438;-85
2021/03/10 04:42:52;;;;;;;40.07;18.03;;;2.60;99.90;;;;;;5117066;28;20483;-85
2021/03/10 04:45:19;;;;;;;37.00;17.53;;;2.60;99.90;;;;;;5117456;28;20515;-85
2021/03/10 04:47:47;;;;;;;38.67;18.60;;;2.50;99.90;;;;;;5117106;28;20822;-85
2021/03/10 04:50:15;;;;;;;38.27;17.00;;;2.50;99.90;;;;;;5117017;28;20439;-85
2021/03/10 04:52:42;;;;;;;33.93;17.93;;;2.50;99.90;;;;;;5117116;28;20443;-84
2021/03/10 04:55:10;;;;;;;42.87;19.73;;;2.40;99.90;;;;;;5116924;27;20859;-84
2021/03/10 04:57:37;;;;;;;36.73;17.80;;;2.40;99.90;;;;;;5116924;28;20504;-84
2021/03/10 05:00:06;;;;;;;40.20;19.37;;;2.40;99.90;;;;;;5116710;28;20450;-84
2021/03/10 05:02:33;;;;;;;37.73;17.63;;;2.30;99.90;;;;;;5116725;28;20489;-85
2021/03/10 05:04:59;;;;;;;33.57;17.53;;;2.30;99.90;;;;;;5116691;28;20438;-85
2021/03/10 05:07:25;;;;;;;42.23;18.43;;;2.30;99.90;;;;;;5116749;28;20447;-84
2021/03/10 05:09:52;;;;;;;38.53;19.33;;;2.30;99.90;;;;;;5116788;28;20511;-84
2021/03/10 05:12:18;;;;;;;40.27;19.57;;;2.40;99.90;;;;;;5116727;28;20446;-85
2021/03/10 05:14:44;;;;;;;42.37;19.47;;;2.40;99.90;;;;;;5116624;28;20447;-85
2021/03/10 05:17:10;;;;;;;39.43;18.47;;;2.50;99.90;;;;;;5116501;28;20512;-85
2021/03/10 05:19:37;;;;;;;35.80;18.10;;;2.50;99.90;;;;;;5116449;28;20435;-84
2021/03/10 05:22:04;;;;;;;37.33;17.90;;;2.50;99.90;;;;;;5116383;28;20479;-85
2021/03/10 05:24:30;;;;;;;38.93;19.57;;;2.60;99.90;;;;;;5116347;28;20447;-84
2021/03/10 05:26:56;;;;;;;39.13;16.77;;;2.60;99.90;;;;;;5116294;28;20463;-84
2021/03/10 05:29:22;;;;;;;37.03;17.10;;;2.60;99.90;;;;;;5116027;28;20490;-85
2021/03/10 05:31:49;;;;;;;36.77;17.77;;;2.70;99.90;;;;;;5116324;28;20447;-85
2021/03/10 05:34:15;;;;;;;38.10;19.40;;;2.70;99.90;;;;;;5116157;28;20451;-85
2021/03/10 05:36:42;;;;;;;37.60;18.33;;;2.80;99.90;;;;;;5116532;28;20853;-86
2021/03/10 05:39:08;;;;;;;36.00;19.37;;;2.80;99.90;;;;;;5115614;28;20470;-85
2021/03/10 05:41:35;;;;;;;34.93;18.53;;;2.90;99.90;;;;;;5116017;28;20483;-85
2021/03/10 05:44:02;;;;;;;38.20;20.00;;;2.90;99.90;;;;;;5115785;28;20917;-85
2021/03/10 05:46:30;;;;;;;39.07;18.53;;;2.80;99.90;;;;;;5115644;28;20455;-85
2021/03/10 05:48:56;;;;;;;35.57;18.20;;;2.90;99.90;;;;;;5115849;28;20462;-85
2021/03/10 05:51:22;;;;;;;39.37;17.47;;;2.80;99.90;;;;;;5115723;28;21002;-85
2021/03/10 05:53:52;;;;;;;37.70;18.30;;;2.90;99.90;;;;;;5115989;28;20431;-85
2021/03/10 05:56:18;;;;;;;35.80;16.20;;;2.90;99.90;;;;;;5115793;28;20486;-85
2021/03/10 05:58:54;;;;;;;40.33;18.47;;;3.00;99.90;;;;;;5116387;28;20568;-85
2021/03/10 06:01:20;;;;;;;40.70;18.40;;;2.90;99.90;;;;;;5115737;28;20411;-86
2021/03/10 06:03:52;;;;;;;40.70;19.50;;;2.90;99.90;;;;;;5115398;28;20427;-86
2021/03/10 06:06:19;;;;;;;36.57;18.50;;;2.90;99.90;;;;;;5115453;28;20464;-85
2021/03/10 06:08:45;;;;;;;38.67;18.30;;;3.00;99.90;;;;;;5115797;28;20443;-86
2021/03/10 06:11:22;;;;;;;41.60;19.50;;;3.00;99.90;;;;;;5115575;28;20439;-85
2021/03/10 06:13:49;;;;;;;37.33;18.90;;;3.10;99.90;;;;;;5115515;28;20435;-86
2021/03/10 06:16:20;;;;;;;38.37;18.80;;;3.10;99.90;;;;;;5115453;28;20469;-85
2021/03/10 06:18:47;;;;;;;38.00;18.80;;;3.10;99.90;;;;;;5115350;28;20427;-86
2021/03/10 06:21:15;;;;;;;38.07;18.77;;;3.20;99.90;;;;;;5115251;28;20449;-85
2021/03/10 06:23:51;;;;;;;39.80;18.10;;;3.20;99.90;;;;;;5115146;28;20774;-86
2021/03/10 06:26:19;;;;;;;33.83;17.60;;;3.20;99.90;;;;;;5115421;28;20477;-82
2021/03/10 06:28:47;;;;;;;34.73;17.80;;;3.30;99.90;;;;;;5114514;28;20497;-81
2021/03/10 06:31:17;;;;;;;34.57;17.77;;;3.20;99.90;;;;;;5114972;28;20454;-82
2021/03/10 06:33:44;;;;;;;34.10;16.83;;;3.30;99.90;;;;;;5114975;28;20500;-82
2021/03/10 06:36:10;;;;;;;34.77;17.70;;;3.30;99.90;;;;;;5115636;28;20532;-82
2021/03/10 06:38:37;;;;;;;37.50;18.90;;;3.40;99.90;;;;;;5114727;28;20531;-81
2021/03/10 06:41:03;;;;;;;36.00;18.00;;;3.40;99.90;;;;;;5114431;28;20972;-82
2021/03/10 06:43:37;;;;;;;36.67;19.27;;;3.40;99.90;;;;;;5114575;28;20478;-82
2021/03/10 06:46:11;;;;;;;37.57;18.27;;;3.50;99.90;;;;;;5114622;27;20463;-82
2021/03/10 06:48:38;;;;;;;38.37;18.37;;;3.50;99.90;;;;;;5114615;28;20443;-82
2021/03/10 06:51:12;;;;;;;39.43;18.50;;;3.50;99.90;;;;;;5113815;28;20507;-82
2021/03/10 06:53:38;;;;;;;39.10;18.37;;;3.50;99.90;;;;;;5114809;28;20435;-85
2021/03/10 06:56:05;;;;;;;33.47;18.00;;;3.50;99.90;;;;;;5114538;28;20447;-86
2021/03/10 06:58:32;;;;;;;38.07;17.67;;;3.50;99.90;;;;;;5114420;28;20441;-86
2021/03/10 07:01:01;;;;;;;37.93;17.83;;;3.60;99.90;;;;;;5114418;28;20443;-86
2021/03/10 07:03:29;;;;;;;37.63;19.47;;;3.60;99.90;;;;;;5114188;28;20489;-85
2021/03/10 07:05:56;;;;;;;32.07;17.37;;;3.70;99.90;;;;;;5113958;28;20783;-82
2021/03/10 07:08:23;;;;;;;34.23;16.33;;;3.70;99.90;;;;;;5113939;28;20962;-82
2021/03/10 07:10:50;;;;;;;37.00;17.13;;;3.70;99.90;;;;;;5113896;28;20970;-82
2021/03/10 07:13:17;;;;;;;33.30;17.13;;;3.70;99.90;;;;;;5114169;28;20447;-82
2021/03/10 07:15:44;;;;;;;34.73;17.13;;;3.80;99.90;;;;;;5114075;28;20467;-81
2021/03/10 07:18:12;;;;;;;41.40;17.93;;;3.90;99.90;;;;;;5114097;28;20450;-81
2021/03/10 07:20:43;;;;;;;32.67;15.80;;;4.00;99.90;;;;;;5114041;28;20438;-82
2021/03/10 07:23:12;;;;;;;36.97;17.67;;;4.00;99.90;;;;;;5114045;28;20876;-82
2021/03/10 07:25:43;;;;;;;36.00;18.27;;;4.10;99.90;;;;;;5113947;28;20459;-82
2021/03/10 07:28:14;;;;;;;37.90;16.67;;;4.10;99.90;;;;;;5113760;28;20502;-82
2021/03/10 07:30:42;;;;;;;36.47;17.80;;;4.20;99.90;;;;;;5113970;27;20432;-82
2021/03/10 07:33:10;;;;;;;37.40;18.60;;;4.20;99.90;;;;;;5113644;28;20443;-82
2021/03/10 07:35:49;;;;;;;36.10;18.20;;;4.30;99.90;;;;;;5113868;28;20824;-82
2021/03/10 07:38:16;;;;;;;35.73;17.30;;;4.40;99.90;;;;;;5113838;28;20435;-81
2021/03/10 07:40:57;;;;;;;38.43;18.60;;;4.40;99.90;;;;;;5113851;28;20449;-82
2021/03/10 07:43:37;;;;;;;39.77;19.30;;;4.50;99.90;;;;;;5113401;28;20481;-81
2021/03/10 07:46:04;;;;;;;38.77;19.77;;;4.60;99.90;;;;;;5113757;28;20463;-81
2021/03/10 07:48:32;;;;;;;39.27;19.83;;;4.70;99.90;;;;;;5113750;28;20447;-82
2021/03/10 07:51:00;;;;;;;41.97;19.73;;;4.80;99.90;;;;;;5113449;28;20950;-82
2021/03/10 07:53:36;;;;;;;38.30;20.00;;;4.80;99.90;;;;;;5113738;28;20439;-83
2021/03/10 07:56:03;;;;;;;49.30;23.70;;;4.80;99.90;;;;;;5113391;28;20515;-82
2021/03/10 07:58:30;;;;;;;44.17;21.20;;;4.80;99.90;;;;;;5113746;28;20427;-83
2021/03/10 08:00:57;;;;;;;46.30;21.90;;;4.90;99.90;;;;;;5113791;28;20437;-83
2021/03/10 08:03:28;;;;;;;45.17;23.90;;;4.90;99.90;;;;;;5117017;28;20836;-83
2021/03/10 08:06:01;;;;;;;49.90;21.13;;;4.90;99.90;;;;;;5117840;27;20825;-82
2021/03/10 08:08:34;;;;;;;44.07;21.70;;;4.90;99.90;;;;;;5117853;28;20414;-83
2021/03/10 08:11:12;;;;;;;45.40;21.43;;;4.80;99.90;;;;;;5117807;28;20427;-82
2021/03/10 08:13:39;;;;;;;44.93;22.23;;;4.90;99.90;;;;;;5117747;28;20824;-82
2021/03/10 08:16:07;;;;;;;48.20;22.33;;;5.00;99.90;;;;;;5117657;28;20520;-82
2021/03/10 08:18:34;;;;;;;43.93;21.63;;;5.10;99.90;;;;;;5117255;28;20451;-82
2021/03/10 08:21:08;;;;;;;45.50;23.97;;;5.30;99.90;;;;;;5117275;28;20431;-82
2021/03/10 08:23:34;;;;;;;49.33;22.53;;;5.40;99.90;;;;;;5117150;28;21000;-82
2021/03/10 08:26:02;;;;;;;43.23;22.53;;;5.60;99.90;;;;;;5117287;28;20467;-82
2021/03/10 08:28:33;;;;;;;51.57;22.90;;;5.70;99.90;;;;;;5116879;28;20993;-82
2021/03/10 08:31:01;;;;;;;47.20;22.30;;;5.80;99.90;;;;;;5117355;28;20484;-82
2021/03/10 08:33:27;;;;;;;46.30;21.60;;;6.00;99.90;;;;;;5116991;28;20442;-81
2021/03/10 08:35:54;;;;;;;53.50;23.90;;;6.20;99.90;;;;;;5117267;28;20482;-82
2021/03/10 08:38:21;;;;;;;40.17;20.27;;;6.50;99.90;;;;;;5117215;28;20450;-82
2021/03/10 08:40:47;;;;;;;46.47;23.23;;;6.60;99.90;;;;;;5116900;28;20457;-82
2021/03/10 08:43:18;;;;;;;43.37;22.70;;;6.70;99.90;;;;;;5117091;28;20485;-82
2021/03/10 08:45:44;;;;;;;39.80;20.47;;;6.90;99.90;;;;;;5116999;28;20466;-82
2021/03/10 08:48:12;;;;;;;38.63;20.13;;;6.90;99.90;;;;;;5117015;28;20788;-82
2021/03/10 08:50:40;;;;;;;42.07;20.83;;;6.90;99.90;;;;;;5116583;27;20819;-81
2021/03/10 08:53:09;;;;;;;41.40;21.10;;;6.90;99.90;;;;;;5116544;28;20454;-82
2021/03/10 08:55:36;;;;;;;35.47;19.20;;;6.80;99.90;;;;;;5116744;28;20462;-79
2021/03/10 08:58:08;;;;;;;38.50;21.23;;;6.80;99.90;;;;;;5116475;28;20447;-80
2021/03/10 09:00:35;;;;;;;43.63;21.30;;;6.80;99.90;;;;;;5116465;27;20419;-80
2021/03/10 09:03:10;;;;;;;41.33;21.63;;;6.80;99.90;;;;;;5116599;28;20494;-80
2021/03/10 09:05:36;;;;;;;37.20;19.43;;;6.80;99.90;;;;;;5117095;28;20470;-80
2021/03/10 09:08:04;;;;;;;36.97;18.53;;;6.80;99.90;;;;;;5116596;28;20511;-80
2021/03/10 09:10:31;;;;;;;40.77;18.43;;;6.90;99.90;;;;;;5116550;28;20511;-80
2021/03/10 09:12:58;;;;;;;31.10;17.33;;;7.00;99.90;;;;;;5116081;28;20415;-80
2021/03/10 09:15:26;;;;;;;36.27;19.27;;;7.00;99.90;;;;;;5115983;28;20463;-80
2021/03/10 09:17:52;;;;;;;40.50;18.43;;;7.10;99.90;;;;;;5116347;28;20451;-80
2021/03/10 09:20:25;;;;;;;32.03;17.00;;;7.10;99.90;;;;;;5117129;28;20447;-80
2021/03/10 09:22:52;;;;;;;32.13;17.97;;;7.20;99.90;;;;;;5116592;28;20474;-81
2021/03/10 09:25:22;;;;;;;34.70;18.60;;;7.00;99.90;;;;;;5116171;28;20516;-80
2021/03/10 09:27:48;;;;;;;37.93;19.20;;;7.20;99.90;;;;;;5115894;28;20918;-81
2021/03/10 09:30:27;;;;;;;35.20;19.27;;;7.30;99.90;;;;;;5116179;28;20424;-80
2021/03/10 09:32:53;;;;;;;35.53;18.87;;;7.50;99.90;;;;;;5116182;28;20431;-80
2021/03/10 09:35:22;;;;;;;30.57;16.93;;;7.70;99.90;;;;;;5115998;28;20463;-80
2021/03/10 09:37:50;;;;;;;37.10;18.40;;;8.00;99.90;;;;;;5115987;28;20435;-80
2021/03/10 09:40:20;;;;;;;34.33;17.77;;;8.30;99.90;;;;;;5116013;28;20506;-80
2021/03/10 09:42:56;;;;;;;28.80;17.03;;;8.60;99.90;;;;;;5115904;28;20463;-81
2021/03/10 09:45:25;;;;;;;28.50;15.00;;;9.00;99.90;;;;;;5115885;28;20467;-81
2021/03/10 09:47:51;;;;;;;28.83;16.10;;;9.50;99.90;;;;;;5116161;28;20440;-81
2021/03/10 09:50:29;;;;;;;29.57;15.73;;;9.80;99.90;;;;;;5115784;28;20427;-82
2021/03/10 09:52:56;;;;;;;25.90;16.60;;;10.20;99.90;;;;;;5115676;28;20561;-81
2021/03/10 09:55:23;;;;;;;25.73;14.40;;;10.80;99.90;;;;;;5115573;27;20463;-82
2021/03/10 09:58:01;;;;;;;25.13;14.97;;;11.20;99.90;;;;;;5115300;28;20449;-82
2021/03/10 10:00:28;;;;;;;30.37;15.47;;;11.70;99.90;;;;;;5115578;28;20430;-82
2021/03/10 10:02:54;;;;;;;21.23;12.20;;;12.10;99.90;;;;;;5115427;28;20482;-83
2021/03/10 10:05:22;;;;;;;21.37;12.53;;;12.50;98.20;;;;;;5115411;28;20471;-83
2021/03/10 10:07:49;;;;;;;16.80;10.63;;;12.90;93.80;;;;;;5115075;28;20987;-82
2021/03/10 10:10:16;;;;;;;16.47;10.70;;;13.20;93.80;;;;;;5115382;27;20435;-82
2021/03/10 10:12:43;;;;;;;18.60;10.57;;;13.90;91.50;;;;;;5115344;27;20443;-82
2021/03/10 10:15:11;;;;;;;17.23;11.13;;;13.90;85.50;;;;;;5115256;28;20525;-83
2021/03/10 10:17:41;;;;;;;19.23;11.70;;;13.40;78.30;;;;;;5115254;28;20858;-82
2021/03/10 10:20:09;;;;;;;18.90;11.67;;;12.80;81.20;;;;;;5114916;28;20914;-82
2021/03/10 10:22:35;;;;;;;19.80;11.47;;;12.40;85.20;;;;;;5114799;28;20619;-82
2021/03/10 10:25:02;;;;;;;19.70;11.87;;;12.00;85.50;;;;;;5115016;28;20447;-82
2021/03/10 10:27:28;;;;;;;18.50;11.40;;;11.40;82.00;;;;;;5114491;28;20792;-83
2021/03/10 10:29:55;;;;;;;14.27;9.67;;;10.90;86.10;;;;;;5115020;28;20879;-82
2021/03/10 10:32:21;;;;;;;19.77;11.80;;;10.50;88.50;;;;;;5114609;28;20446;-82
2021/03/10 10:34:49;;;;;;;19.13;11.20;;;10.10;89.70;;;;;;5114611;28;20443;-82
2021/03/10 10:37:15;;;;;;;18.80;11.47;;;9.80;91.40;;;;;;5114791;28;20471;-82
2021/03/10 10:39:42;;;;;;;19.23;11.60;;;9.50;92.30;;;;;;5114874;28;20427;-83
2021/03/10 10:42:08;;;;;;;18.60;11.00;;;9.10;92.60;;;;;;5114363;28;20483;-82
2021/03/10 10:44:34;;;;;;;19.23;10.90;;;8.90;94.40;;;;;;5114677;27;20458;-82
2021/03/10 10:47:01;;;;;;;17.37;10.60;;;8.70;95.20;;;;;;5114607;28;20463;-82
2021/03/10 10:49:27;;;;;;;18.30;10.13;;;8.50;95.00;;;;;;5114966;28;20798;-82
2021/03/10 10:51:54;;;;;;;19.73;10.60;;;8.30;95.30;;;;;;5114561;28;20453;-82
2021/03/10 10:54:21;;;;;;;18.83;11.57;;;8.30;95.60;;;;;;5114219;28;20451;-82
2021/03/10 10:56:51;;;;;;;25.53;12.63;;;8.20;95.80;;;;;;5114984;28;20482;-87
2021/03/10 11:09:24;;;;;;;18.70;11.97;;;8.60;98.60;;;;;;5054386;28;20439;-87
2021/03/10 11:11:59;;;;;;;17.80;10.63;;;8.80;98.10;;;;;;5087029;28;20459;-87
2021/03/10 11:14:26;;;;;;;19.87;11.40;;;8.90;97.70;;;;;;5111993;28;20946;-87
2021/03/10 11:16:56;;;;;;;18.93;11.20;;;8.90;95.30;;;;;;5114228;28;20983;-86
2021/03/10 11:19:22;;;;;;;16.97;8.80;;;9.00;95.90;;;;;;5114248;28;20942;-86
2021/03/10 11:21:48;;;;;;;8.47;5.47;;;9.00;93.40;;;;;;5114280;28;20809;-86
2021/03/10 11:24:15;;;;;;;9.10;4.17;;;9.20;92.60;;;;;;5114371;28;20469;-86
2021/03/10 11:26:42;;;;;;;5.90;4.17;;;9.50;91.50;;;;;;5114098;28;20950;-87
2021/03/10 11:29:09;;;;;;;10.60;5.37;;;9.80;88.10;;;;;;5113709;28;20485;-86
2021/03/10 11:31:35;;;;;;;9.77;5.87;;;9.90;86.30;;;;;;5114116;28;20439;-87
2021/03/10 11:34:02;;;;;;;12.77;7.40;;;10.30;84.30;;;;;;5113990;28;20930;-86
2021/03/10 11:36:28;;;;;;;12.23;7.47;;;10.30;82.10;;;;;;5113434;28;20474;-87
2021/03/10 11:38:54;;;;;;;14.30;7.07;;;10.30;83.70;;;;;;5114204;28;20439;-86
2021/03/10 11:41:21;;;;;;;9.27;6.37;;;10.40;84.20;;;;;;5113845;28;21053;-86
2021/03/10 11:43:48;;;;;;;10.53;6.87;;;10.30;82.70;;;;;;5113870;28;20815;-87
2021/03/10 11:46:14;;;;;;;12.43;7.57;;;10.50;81.50;;;;;;5114241;28;20502;-87
2021/03/10 11:48:41;;;;;;;14.00;7.67;;;10.50;81.70;;;;;;5113712;28;20488;-84
2021/03/10 11:51:08;;;;;;;17.13;8.10;;;10.50;82.50;;;;;;5113854;28;20439;-83
2021/03/10 11:53:34;;;;;;;14.30;8.53;;;10.60;83.30;;;;;;5113727;28;20936;-82
2021/03/10 11:56:00;;;;;;;16.57;9.50;;;10.70;86.30;;;;;;5113514;28;20486;-82
2021/03/10 11:58:27;;;;;;;15.20;7.90;;;10.70;83.50;;;;;;5113687;28;20438;-82
2021/03/10 12:00:54;;;;;;;12.07;8.30;;;10.70;84.90;;;;;;5112428;28;20454;-82
2021/03/10 12:03:20;;;;;;;11.87;7.10;;;10.70;84.40;;;;;;5113365;28;20470;-83
2021/03/10 12:05:47;;;;;;;13.47;7.67;;;10.70;83.70;;;;;;5113583;28;20459;-83
2021/03/10 12:08:13;;;;;;;11.00;7.40;;;10.80;83.60;;;;;;5113687;28;20434;-82
2021/03/10 12:10:41;;;;;;;10.53;7.43;;;10.90;84.20;;;;;;5113621;28;20505;-83
2021/03/10 12:13:08;;;;;;;13.17;7.20;;;10.90;82.70;;;;;;5113583;28;20837;-83
2021/03/10 12:15:34;;;;;;;16.03;7.50;;;10.90;79.50;;;;;;5113513;28;20557;-82
2021/03/10 12:18:02;;;;;;;14.27;7.50;;;10.70;82.00;;;;;;5113504;28;20439;-83
2021/03/10 12:20:29;;;;;;;12.37;7.90;;;10.70;80.00;;;;;;5113645;28;20484;-87
2021/03/10 12:22:55;;;;;;;13.80;7.27;;;10.60;78.40;;;;;;5114335;28;20467;-83
2021/03/10 12:25:22;;;;;;;11.53;6.60;;;10.70;81.10;;;;;;5113482;28;20494;-83
2021/03/10 12:27:50;;;;;;;9.87;6.23;;;10.70;79.50;;;;;;5113197;28;20486;-83
2021/03/10 12:30:17;;;;;;;10.23;6.03;;;10.80;77.30;;;;;;5113674;28;20439;-83
2021/03/10 12:32:43;;;;;;;13.60;6.27;;;10.80;72.90;;;;;;5113041;28;20439;-83
2021/03/10 12:35:11;;;;;;;8.97;4.90;;;10.80;74.30;;;;;;5113058;28;20427;-82
2021/03/10 12:37:38;;;;;;;8.70;5.30;;;10.80;76.70;;;;;;5113057;28;20924;-83
2021/03/10 12:40:05;;;;;;;7.90;3.57;;;11.00;75.60;;;;;;5113426;28;20423;-83
2021/03/10 12:42:31;;;;;;;4.60;3.63;;;11.00;70.10;;;;;;5112922;28;20479;-83
2021/03/10 12:44:58;;;;;;;7.37;4.40;;;10.90;70.30;;;;;;5113206;28;20447;-83
2021/03/10 12:47:25;;;;;;;5.70;3.80;;;11.00;69.80;;;;;;5113288;28;20443;-82
2021/03/10 12:49:51;;;;;;;7.40;4.10;;;10.90;71.70;;;;;;5115722;28;20480;-83
2021/03/10 12:52:18;;;;;;;5.37;4.00;;;10.80;72.90;;;;;;5116630;28;20894;-83